createdAt,value
2022-10-02T00:01:34.635Z,94042.06
2022-10-02T00:04:03.843Z,94032.38
2022-10-02T00:06:41.311Z,94042.03
2022-10-02T00:09:17.176Z,94046.06
2022-10-02T00:11:48.444Z,94041.81
2022-10-02T00:14:21.836Z,94039.34
2022-10-02T00:16:53.663Z,94046.22
2022-10-02T00:19:21.627Z,94037.13
2022-10-02T00:22:07.891Z,94026.28
2022-10-02T00:24:44.559Z,94045.50
2022-10-02T00:27:34.561Z,94045.34
2022-10-02T00:30:06.237Z,94058.00
2022-10-02T00:32:41.845Z,94060.63
2022-10-02T00:35:31.954Z,94050.00
2022-10-02T00:38:06.249Z,94054.44
2022-10-02T00:40:44.024Z,94064.69
2022-10-02T00:43:27.665Z,94069.47
2022-10-02T00:46:21.940Z,94067.09
2022-10-02T00:48:57.247Z,94080.63
2022-10-02T00:51:38.021Z,94083.88
2022-10-02T00:54:20.321Z,94091.72
2022-10-02T00:56:57.089Z,94087.09
2022-10-02T00:59:50.326Z,94082.84
2022-10-02T01:02:53.012Z,94095.72
2022-10-02T01:05:22.082Z,94081.47
2022-10-02T01:07:52.394Z,94077.69
2022-10-02T01:10:22.345Z,94092.88
2022-10-02T01:12:51.175Z,94108.81
2022-10-02T01:15:20.613Z,94111.25
2022-10-02T01:17:52.982Z,94119.56
2022-10-02T01:20:32.932Z,94113.09
2022-10-02T01:23:07.283Z,94117.13
2022-10-02T01:25:36.622Z,94116.75
2022-10-02T01:28:05.715Z,94114.19
2022-10-02T01:30:37.324Z,94128.66
2022-10-02T01:33:06.607Z,94121.09
2022-10-02T01:35:38.898Z,94139.22
2022-10-02T01:38:10.779Z,94148.13
2022-10-02T01:40:41.587Z,94149.34
2022-10-02T01:43:12.101Z,94148.34
2022-10-02T01:45:51.286Z,94159.03
2022-10-02T01:48:26.401Z,94162.03
2022-10-02T01:51:11.985Z,94155.81
2022-10-02T01:53:47.875Z,94166.28
2022-10-02T01:56:24.345Z,94178.75
2022-10-02T01:59:05.625Z,94177.97
2022-10-02T02:01:45.528Z,94173.38
2022-10-02T02:04:23.185Z,94169.16
2022-10-02T02:06:59.930Z,94175.63
2022-10-02T02:09:34.558Z,94170.78
2022-10-02T02:12:12.834Z,94177.03
2022-10-02T02:14:47.566Z,94196.13
2022-10-02T02:17:21.814Z,94203.78
2022-10-02T02:19:56.477Z,94226.09
2022-10-02T02:22:28.681Z,94222.25
2022-10-02T02:25:01.493Z,94225.09
2022-10-02T02:27:35.223Z,94240.19
2022-10-02T02:30:08.137Z,94243.38
2022-10-02T02:32:38.641Z,94245.41
2022-10-02T02:35:11.540Z,94253.66
2022-10-02T02:37:43.742Z,94250.03
2022-10-02T02:40:15.876Z,94245.22
2022-10-02T02:42:53.768Z,94256.47
2022-10-02T02:45:25.338Z,94260.09
2022-10-02T02:47:56.836Z,94253.69
2022-10-02T02:50:30.681Z,94261.13
2022-10-02T02:53:03.107Z,94262.53
2022-10-02T02:55:35.948Z,94264.16
2022-10-02T02:58:09.064Z,94275.81
2022-10-02T03:00:36.959Z,94276.00
2022-10-02T03:03:05.034Z,94276.00
2022-10-02T03:05:35.385Z,94280.44
2022-10-02T03:08:06.505Z,94299.72
2022-10-02T03:10:46.308Z,94308.97
2022-10-02T03:13:31.314Z,94310.78
2022-10-02T03:16:15.843Z,94315.22
2022-10-02T03:19:01.341Z,94314.59
2022-10-02T03:21:33.630Z,94302.31
2022-10-02T03:24:08.856Z,94308.16
2022-10-02T03:26:41.670Z,94312.97
2022-10-02T03:29:16.357Z,94312.78
2022-10-02T03:31:46.190Z,94317.84
2022-10-02T03:34:14.338Z,94319.63
2022-10-02T03:36:42.488Z,94322.88
2022-10-02T03:39:24.597Z,94341.75
2022-10-02T03:41:53.442Z,94330.09
2022-10-02T03:44:22.810Z,94334.53
2022-10-02T03:46:50.710Z,94346.56
2022-10-02T03:49:18.608Z,94340.97
2022-10-02T03:51:46.765Z,94355.44
2022-10-02T03:54:17.938Z,94350.59
2022-10-02T03:56:55.809Z,94352.81
2022-10-02T03:59:39.902Z,94364.06
2022-10-02T04:02:14.320Z,94361.25
2022-10-02T04:04:47.674Z,94353.41
2022-10-02T04:07:21.240Z,94391.78
2022-10-02T04:09:57.312Z,94403.28
2022-10-02T04:12:30.253Z,94398.03
2022-10-02T04:15:06.587Z,94398.22
2022-10-02T04:17:44.302Z,94394.81
2022-10-02T04:20:18.175Z,94403.66
2022-10-02T04:22:52.081Z,94401.66
2022-10-02T04:25:22.080Z,94417.94
2022-10-02T04:27:56.217Z,94419.13
2022-10-02T04:30:25.531Z,94424.97
2022-10-02T04:32:53.577Z,94427.38
2022-10-02T04:35:32.392Z,94420.16
2022-10-02T04:38:23.025Z,94424.78
2022-10-02T04:41:08.619Z,94431.63
2022-10-02T04:43:48.175Z,94460.16
2022-10-02T04:46:43.947Z,94423.78
2022-10-02T04:49:35.710Z,94440.28
2022-10-02T04:52:16.179Z,94486.69
2022-10-02T04:55:04.956Z,94464.38
2022-10-02T04:57:50.227Z,94464.19
2022-10-02T05:00:21.000Z,94470.41
2022-10-02T05:03:24.117Z,94475.22
2022-10-02T05:06:12.825Z,94476.63
2022-10-02T05:08:57.380Z,94486.28
2022-10-02T05:11:41.364Z,94487.50
2022-10-02T05:14:44.596Z,94506.84
2022-10-02T05:17:28.645Z,94500.78
2022-10-02T05:20:19.532Z,94500.63
2022-10-02T05:23:02.063Z,94497.22
2022-10-02T05:26:02.331Z,94509.88
2022-10-02T05:28:44.731Z,94509.47
2022-10-02T05:31:26.793Z,94532.41
2022-10-02T05:34:13.478Z,94563.59
2022-10-02T05:36:54.999Z,94523.16
2022-10-02T05:39:29.268Z,94510.09
2022-10-02T05:42:05.681Z,94543.50
2022-10-02T05:44:38.547Z,94552.34
2022-10-02T05:47:13.821Z,94541.09
2022-10-02T05:49:48.072Z,94570.50
2022-10-02T05:52:19.828Z,94554.16
2022-10-02T05:54:55.476Z,94548.31
2022-10-02T05:57:31.859Z,94550.88
2022-10-02T06:00:07.772Z,94594.16
2022-10-02T06:02:43.296Z,94583.09
2022-10-02T06:05:18.669Z,94579.47
2022-10-02T06:07:51.346Z,94573.66
2022-10-02T06:10:24.993Z,94583.09
2022-10-02T06:12:59.127Z,94593.75
2022-10-02T06:15:32.723Z,94580.69
2022-10-02T06:18:05.331Z,94602.81
2022-10-02T06:20:37.375Z,94614.09
2022-10-02T06:23:09.986Z,94621.75
2022-10-02T06:25:44.685Z,94625.78
2022-10-02T06:28:18.722Z,94620.34
2022-10-02T06:30:52.622Z,94625.59
2022-10-02T06:33:24.401Z,94614.09
2022-10-02T06:36:08.079Z,94614.47
2022-10-02T06:38:52.009Z,94623.94
2022-10-02T06:41:28.834Z,94621.31
2022-10-02T06:44:13.210Z,94633.00
2022-10-02T06:46:52.415Z,94632.63
2022-10-02T06:49:32.856Z,94644.28
2022-10-02T06:52:13.412Z,94631.44
2022-10-02T06:54:54.112Z,94643.94
2022-10-02T06:57:42.465Z,94641.59
2022-10-02T07:00:13.684Z,94647.25
2022-10-02T07:03:09.178Z,94631.94
2022-10-02T07:06:06.778Z,94661.72
2022-10-02T07:08:50.873Z,94675.72
2022-10-02T07:11:28.800Z,94669.28
2022-10-02T07:14:11.879Z,94677.00
2022-10-02T07:16:54.059Z,94667.97
2022-10-02T07:19:37.001Z,94664.94
2022-10-02T07:22:42.716Z,94672.41
2022-10-02T07:25:27.283Z,94679.91
2022-10-02T07:28:00.465Z,94681.53
2022-10-02T07:30:41.269Z,94695.22
2022-10-02T07:33:20.428Z,94697.81
2022-10-02T07:35:56.325Z,94729.44
2022-10-02T07:38:46.312Z,94721.81
2022-10-02T07:41:26.276Z,94740.13
2022-10-02T07:44:02.472Z,94718.63
2022-10-02T07:46:42.025Z,94715.84
2022-10-02T07:49:33.059Z,94720.69
2022-10-02T07:52:09.217Z,94735.00
2022-10-02T07:54:58.161Z,94746.28
2022-10-02T07:57:36.113Z,94767.06
2022-10-02T08:00:08.575Z,94775.72
2022-10-02T08:02:44.667Z,94787.59
2022-10-02T08:05:23.367Z,94795.41
2022-10-02T08:07:56.757Z,94791.41
2022-10-02T08:10:27.777Z,94792.41
2022-10-02T08:13:02.596Z,94794.47
2022-10-02T08:15:35.973Z,94808.97
2022-10-02T08:18:33.125Z,94823.69
2022-10-02T08:21:03.268Z,94807.09
2022-10-02T08:23:38.931Z,94804.31
2022-10-02T08:26:13.648Z,94796.66
2022-10-02T08:28:48.013Z,94790.00
2022-10-02T08:31:20.375Z,94805.97
2022-10-02T08:33:49.964Z,94804.09
2022-10-02T08:36:39.630Z,94813.38
2022-10-02T08:39:21.582Z,94805.16
2022-10-02T08:42:22.839Z,94808.41
2022-10-02T08:45:21.537Z,94825.34
2022-10-02T08:48:31.210Z,94809.81
2022-10-02T08:51:58.797Z,94820.34
2022-10-02T08:55:17.272Z,94807.66
2022-10-02T08:58:43.942Z,94826.00
2022-10-02T09:01:35.156Z,94806.44
2022-10-02T09:04:41.604Z,94809.28
2022-10-02T09:08:07.844Z,94816.53
2022-10-02T09:11:17.509Z,94812.28
2022-10-02T09:14:11.071Z,94819.34
2022-10-02T09:17:02.549Z,94791.50
2022-10-02T09:19:42.314Z,94810.69
2022-10-02T09:22:39.997Z,94803.56
2022-10-02T09:25:29.104Z,94833.66
2022-10-02T09:28:39.537Z,94826.00
2022-10-02T09:31:40.365Z,94829.44
2022-10-02T09:34:40.610Z,94828.19
2022-10-02T09:37:37.525Z,94820.31
2022-10-02T09:40:41.292Z,94821.13
2022-10-02T09:43:51.437Z,94803.91
2022-10-02T09:46:55.065Z,94820.75
2022-10-02T09:49:48.243Z,94807.53
2022-10-02T09:53:03.983Z,94795.53
2022-10-02T09:56:10.878Z,94809.53
2022-10-02T09:59:03.855Z,94818.97
2022-10-02T10:01:51.414Z,94821.53
2022-10-02T10:05:05.042Z,94815.97
2022-10-02T10:08:02.901Z,94809.75
2022-10-02T10:10:50.840Z,94819.84
2022-10-02T10:13:45.610Z,94815.66
2022-10-02T10:16:43.383Z,94854.66
2022-10-02T10:19:46.872Z,94792.84
2022-10-02T10:22:43.676Z,94797.38
2022-10-02T10:25:43.340Z,94844.78
2022-10-02T10:28:53.787Z,94791.97
2022-10-02T10:32:08.283Z,94774.97
2022-10-02T10:35:05.104Z,94791.94
2022-10-02T10:38:08.675Z,94815.88
2022-10-02T10:40:54.864Z,94796.09
2022-10-02T10:43:52.669Z,94768.44
2022-10-02T10:46:59.063Z,94784.63
2022-10-02T10:50:02.347Z,94782.91
2022-10-02T10:52:52.633Z,94800.94
2022-10-02T10:55:33.699Z,94798.38
2022-10-02T10:58:15.076Z,94790.22
2022-10-02T11:00:59.753Z,94790.66
2022-10-02T11:03:58.302Z,94757.50
2022-10-02T11:06:56.285Z,94777.22
2022-10-02T11:09:55.381Z,94763.53
2022-10-02T11:12:51.084Z,94767.19
2022-10-02T11:16:13.010Z,94772.63
2022-10-02T11:19:01.517Z,94765.25
2022-10-02T11:21:43.606Z,94773.56
2022-10-02T11:24:24.890Z,94767.16
2022-10-02T11:27:26.017Z,94781.34
2022-10-02T11:30:20.745Z,94781.06
2022-10-02T11:33:19.237Z,94773.09
2022-10-02T11:36:16.486Z,94816.69
2022-10-02T11:39:08.775Z,94777.41
2022-10-02T11:42:10.040Z,94782.53
2022-10-02T11:44:55.573Z,94771.53
2022-10-02T11:47:48.292Z,94779.75
2022-10-02T11:50:36.518Z,94808.91
2022-10-02T11:53:23.400Z,94791.84
2022-10-02T11:56:04.525Z,94775.84
2022-10-02T11:58:45.532Z,94783.16
2022-10-02T12:01:21.230Z,94786.06
2022-10-02T12:04:26.481Z,94793.38
2022-10-02T12:07:19.538Z,94778.03
2022-10-02T12:10:02.171Z,94780.88
2022-10-02T12:12:44.850Z,94787.81
2022-10-02T12:15:25.201Z,94772.38
2022-10-02T12:18:05.687Z,94821.06
2022-10-02T12:21:07.090Z,94774.34
2022-10-02T12:24:06.561Z,94801.50
2022-10-02T12:27:04.282Z,94772.59
2022-10-02T12:29:46.120Z,94775.09
2022-10-02T12:32:28.442Z,94748.06
2022-10-02T12:35:15.928Z,94766.59
2022-10-02T12:37:52.139Z,94765.94
2022-10-02T12:40:31.851Z,94777.47
2022-10-02T12:43:24.708Z,94761.69
2022-10-02T12:46:28.742Z,94765.19
2022-10-02T12:49:14.321Z,94786.28
2022-10-02T12:52:00.231Z,94762.47
2022-10-02T12:54:54.209Z,94766.19
2022-10-02T12:57:55.411Z,94776.84
2022-10-02T13:00:27.226Z,94780.34
2022-10-02T13:03:32.427Z,94773.88
2022-10-02T13:06:29.752Z,94768.34
2022-10-02T13:09:08.888Z,94779.50
2022-10-02T13:11:56.560Z,94761.94
2022-10-02T13:14:39.417Z,94764.47
2022-10-02T13:17:31.061Z,94770.41
2022-10-02T13:20:11.866Z,94801.03
2022-10-02T13:22:51.240Z,94774.56
2022-10-02T13:25:34.554Z,94739.88
2022-10-02T13:28:17.445Z,94778.31
2022-10-02T13:30:52.713Z,94781.44
2022-10-02T13:33:36.062Z,94762.38
2022-10-02T13:36:15.530Z,94770.88
2022-10-02T13:39:17.952Z,94785.06
2022-10-02T13:42:02.917Z,94796.91
2022-10-02T13:44:42.820Z,94832.03
2022-10-02T13:47:31.755Z,94803.06
2022-10-02T13:50:17.483Z,94803.16
2022-10-02T13:52:57.280Z,94790.31
2022-10-02T13:55:29.537Z,94794.34
2022-10-02T13:58:12.661Z,94802.03
2022-10-02T14:00:59.177Z,94811.41
2022-10-02T14:03:41.382Z,94784.22
2022-10-02T14:06:20.115Z,94785.41
2022-10-02T14:09:04.304Z,94802.72
2022-10-02T14:11:44.994Z,94771.34
2022-10-02T14:14:23.791Z,94783.66
2022-10-02T14:17:04.112Z,94782.97
2022-10-02T14:20:00.332Z,94782.16
2022-10-02T14:22:38.912Z,94774.69
2022-10-02T14:25:27.547Z,94761.50
2022-10-02T14:28:27.945Z,94770.56
2022-10-02T14:31:11.211Z,94749.22
2022-10-02T14:34:02.399Z,94754.03
2022-10-02T14:36:38.376Z,94743.13
2022-10-02T14:39:22.256Z,94747.81
2022-10-02T14:42:10.944Z,94747.28
2022-10-02T14:44:57.410Z,94739.66
2022-10-02T14:47:41.766Z,94733.47
2022-10-02T14:50:25.800Z,94728.88
2022-10-02T14:53:22.709Z,94733.63
2022-10-02T14:56:28.970Z,94720.63
2022-10-02T14:59:13.844Z,94721.81
2022-10-02T15:01:46.894Z,94722.72
2022-10-02T15:04:31.778Z,94749.75
2022-10-02T15:07:12.526Z,94736.94
2022-10-02T15:09:52.680Z,94729.81
2022-10-02T15:12:27.142Z,94731.88
2022-10-02T15:15:08.745Z,94741.63
2022-10-02T15:17:56.063Z,94748.06
2022-10-02T15:20:52.400Z,94743.94
2022-10-02T15:23:40.453Z,94737.66
2022-10-02T15:26:45.884Z,94734.78
2022-10-02T15:29:26.931Z,94734.44
2022-10-02T15:36:01.449Z,94741.53
2022-10-02T15:38:46.398Z,94741.31
2022-10-02T15:41:39.065Z,94749.75
2022-10-02T15:44:15.924Z,94752.25
2022-10-02T15:46:55.572Z,94734.25
2022-10-02T15:49:39.540Z,94744.16
2022-10-02T15:52:16.985Z,94753.53
2022-10-02T15:54:57.762Z,94741.13
2022-10-02T15:57:43.415Z,94735.69
2022-10-02T16:00:15.984Z,94737.97
2022-10-02T16:02:59.224Z,94736.81
2022-10-02T16:05:46.833Z,94742.91
2022-10-02T16:08:36.394Z,94731.06
2022-10-02T16:11:29.720Z,94732.06
2022-10-02T16:14:06.299Z,94741.19
2022-10-02T16:17:01.266Z,94732.72
2022-10-02T16:19:49.105Z,94727.91
2022-10-02T16:22:33.298Z,94727.31
2022-10-02T16:25:22.291Z,94730.56
2022-10-02T16:27:55.668Z,94717.03
2022-10-02T16:30:26.592Z,94710.63
2022-10-02T16:33:11.403Z,94719.09
2022-10-02T16:36:21.222Z,94742.06
2022-10-02T16:38:50.623Z,94714.25
2022-10-02T16:41:32.162Z,94721.72
2022-10-02T16:44:09.407Z,94716.28
2022-10-02T16:46:44.445Z,94717.31
2022-10-02T16:49:23.794Z,94731.22
2022-10-02T16:52:01.492Z,94721.97
2022-10-02T16:54:39.005Z,94733.84
2022-10-02T16:57:16.328Z,94724.38
2022-10-02T16:59:50.110Z,94732.44
2022-10-02T17:02:22.386Z,94735.84
2022-10-02T17:04:59.143Z,94730.81
2022-10-02T17:07:49.811Z,94728.81
2022-10-02T17:10:26.037Z,94731.59
2022-10-02T17:13:01.407Z,94722.91
2022-10-02T17:15:35.621Z,94724.75
2022-10-02T17:18:20.838Z,94728.38
2022-10-02T17:20:52.526Z,94726.75
2022-10-02T17:23:35.236Z,94713.63
2022-10-02T17:26:08.749Z,94716.69
2022-10-02T17:28:44.638Z,94720.91
2022-10-02T17:31:29.627Z,94726.34
2022-10-02T17:33:59.366Z,94729.59
2022-10-02T17:36:35.958Z,94723.56
2022-10-02T17:39:47.298Z,94718.50
2022-10-02T17:42:28.352Z,94722.72
2022-10-02T17:45:04.041Z,94724.75
2022-10-02T17:47:53.297Z,94727.78
2022-10-02T17:50:36.966Z,94716.88
2022-10-02T17:53:39.937Z,94723.72
2022-10-02T17:56:30.904Z,94729.16
2022-10-02T17:59:16.484Z,94731.59
2022-10-02T18:01:51.305Z,94728.38
2022-10-02T18:04:26.388Z,94727.16
2022-10-02T18:07:12.687Z,94723.53
2022-10-02T18:09:53.893Z,94733.41
2022-10-02T18:12:57.787Z,94727.97
2022-10-02T18:15:41.733Z,94723.94
2022-10-02T18:18:24.920Z,94716.88
2022-10-02T18:21:06.311Z,94721.50
2022-10-02T18:24:00.442Z,94714.66
2022-10-02T18:26:40.927Z,94704.56
2022-10-02T18:29:46.979Z,94711.03
2022-10-02T18:32:43.217Z,94698.91
2022-10-02T18:35:26.973Z,94698.72
2022-10-02T18:38:12.066Z,94705.56
2022-10-02T18:40:55.192Z,94712.00
2022-10-02T18:43:47.644Z,94707.59
2022-10-02T18:46:27.165Z,94707.59
2022-10-02T18:49:20.582Z,94702.78
2022-10-02T18:52:18.800Z,94703.78
2022-10-02T18:55:07.449Z,94698.13
2022-10-02T18:57:52.768Z,94710.00
2022-10-02T19:00:23.037Z,94716.47
2022-10-02T19:03:12.158Z,94710.81
2022-10-02T19:05:48.161Z,94713.44
2022-10-02T19:08:25.744Z,94699.75
2022-10-02T19:10:53.785Z,94699.13
2022-10-02T19:13:27.865Z,94701.13
2022-10-02T19:16:01.196Z,94697.91
2022-10-02T19:18:30.801Z,94690.06
2022-10-02T19:21:06.697Z,94702.31
2022-10-02T19:23:40.609Z,94710.19
2022-10-02T19:26:18.859Z,94709.34
2022-10-02T19:28:50.104Z,94696.47
2022-10-02T19:31:22.805Z,94701.91
2022-10-02T19:33:54.557Z,94708.13
2022-10-02T19:36:30.735Z,94698.88
2022-10-02T19:39:03.098Z,94717.81
2022-10-02T19:41:34.198Z,94707.72
2022-10-02T19:44:06.987Z,94697.81
2022-10-02T19:46:39.472Z,94703.47
2022-10-02T19:49:09.794Z,94714.75
2022-10-02T19:51:47.717Z,94710.13
2022-10-02T19:54:21.031Z,94705.09
2022-10-02T19:56:48.987Z,94692.00
2022-10-02T19:59:20.507Z,94708.50
2022-10-02T20:01:52.208Z,94696.41
2022-10-02T20:04:22.149Z,94679.91
2022-10-02T20:06:56.515Z,94700.44
2022-10-02T20:09:30.908Z,94698.81
2022-10-02T20:12:03.436Z,94699.22
2022-10-02T20:14:37.896Z,94695.00
2022-10-02T20:17:10.861Z,94696.63
2022-10-02T20:19:45.334Z,94684.34
2022-10-02T20:22:24.041Z,94679.91
2022-10-02T20:24:57.823Z,94691.78
2022-10-02T20:27:34.853Z,94686.91
2022-10-02T20:30:07.075Z,94687.91
2022-10-02T20:32:39.357Z,94676.22
2022-10-02T20:35:14.517Z,94681.38
2022-10-02T20:37:46.711Z,94689.19
2022-10-02T20:40:19.031Z,94682.09
2022-10-02T20:42:55.705Z,94688.91
2022-10-02T20:45:30.516Z,94680.03
2022-10-02T20:48:35.778Z,94685.06
2022-10-02T20:51:20.512Z,94671.34
2022-10-02T20:54:35.852Z,94670.13
2022-10-02T20:57:43.113Z,94663.06
2022-10-02T21:00:18.621Z,94661.16
2022-10-02T21:03:18.603Z,94660.06
2022-10-02T21:06:03.455Z,94648.75
2022-10-02T21:09:03.890Z,94659.44
2022-10-02T21:11:59.051Z,94660.19
2022-10-02T21:15:00.914Z,94660.75
2022-10-02T21:18:16.282Z,94657.88
2022-10-02T21:21:08.760Z,94649.97
2022-10-02T21:24:17.907Z,94631.59
2022-10-02T21:26:58.256Z,94624.84
2022-10-02T21:29:58.324Z,94626.22
2022-10-02T21:32:41.053Z,94622.31
2022-10-02T21:35:16.504Z,94625.00
2022-10-02T21:37:58.483Z,94626.34
2022-10-02T21:41:11.751Z,94615.66
2022-10-02T21:44:29.529Z,94604.91
2022-10-02T21:47:27.569Z,94593.53
2022-10-02T21:50:37.648Z,94589.59
2022-10-02T21:53:59.987Z,94581.28
2022-10-02T21:57:15.288Z,94581.88
2022-10-02T22:00:17.040Z,94574.56
2022-10-02T22:03:20.768Z,94569.47
2022-10-02T22:06:20.944Z,94556.00
2022-10-02T22:09:09.257Z,94551.41
2022-10-02T22:11:46.733Z,94552.31
2022-10-02T22:14:23.472Z,94543.69
2022-10-02T22:16:59.698Z,94543.06
2022-10-02T22:19:45.065Z,94547.06
2022-10-02T22:22:26.811Z,94540.63
2022-10-02T22:25:08.784Z,94533.78
2022-10-02T22:27:55.564Z,94532.19
2022-10-02T22:30:26.652Z,94525.47
2022-10-02T22:33:13.313Z,94521.63
2022-10-02T22:36:08.563Z,94529.81
2022-10-02T22:38:39.174Z,94521.56
2022-10-02T22:41:12.919Z,94510.75
2022-10-02T22:43:49.556Z,94516.41
2022-10-02T22:46:37.870Z,94512.31
2022-10-02T22:49:21.007Z,94507.03
2022-10-02T22:52:00.056Z,94514.00
2022-10-02T22:54:39.318Z,94512.03
2022-10-02T22:57:16.305Z,94504.41
2022-10-02T22:59:50.561Z,94495.16
2022-10-02T23:02:24.044Z,94499.03
2022-10-02T23:04:57.189Z,94500.81
2022-10-02T23:07:29.717Z,94496.59
2022-10-02T23:10:02.704Z,94494.78
2022-10-02T23:12:41.521Z,94485.09
2022-10-02T23:15:29.390Z,94489.13
2022-10-02T23:18:01.201Z,94490.50
2022-10-02T23:20:34.977Z,94484.84
2022-10-02T23:23:08.172Z,94482.25
2022-10-02T23:25:45.568Z,94482.63
2022-10-02T23:28:23.155Z,94467.00
2022-10-02T23:31:02.302Z,94465.31
2022-10-02T23:33:43.196Z,94467.66
2022-10-02T23:36:24.398Z,94475.59
2022-10-02T23:38:59.924Z,94457.56
2022-10-02T23:41:46.876Z,94464.84
2022-10-02T23:44:37.056Z,94460.00
2022-10-02T23:47:25.318Z,94456.78
2022-10-02T23:49:54.902Z,94454.28
2022-10-02T23:52:46.223Z,94442.00
2022-10-02T23:55:42.160Z,94446.38
2022-10-02T23:58:26.675Z,94431.59
